This is the latest recevied weather packets stored in our database for station/object KK7KHO. If no packets are shown the sender has not sent any weather packets the latest 10 day(s).
| Time | Temp. | Humidity | Pressure | Rain* | Wind** | Luminosity | Snow |
|---|---|---|---|---|---|---|---|
| 1777862923 | 20° C | 59% | 1008.1 hPa | 0 mm | - | 21 W/m² | - |
| 1777862619 | 20.56° C | 58% | 1008.2 hPa | 0 mm | - | 23 W/m² | - |
| 1777862316 | 20.56° C | 57% | 1008.4 hPa | 0 mm | - | 26 W/m² | - |
| 1777862013 | 21.11° C | 56% | 1008.2 hPa | 0 mm | - | 28 W/m² | - |
| 1777861709 | 21.11° C | 57% | 1008.5 hPa | 0 mm | - | 30 W/m² | - |
| 1777861406 | 21.67° C | 54% | 1008.5 hPa | 0 mm | - | 32 W/m² | - |
| 1777861102 | 21.67° C | 55% | 1008.5 hPa | 0 mm | - | 49 W/m² | - |
| 1777860800 | 22.22° C | 53% | 1008.7 hPa | 0 mm | - | 63 W/m² | - |
| 1777860497 | 22.78° C | 51% | 1008.6 hPa | 0 mm | - | 71 W/m² | - |
| 1777860194 | 22.78° C | 51% | 1008.9 hPa | 0 mm | - | 81 W/m² | - |
| 1777859889 | 22.78° C | 51% | 1008.6 hPa | 0 mm | - | 89 W/m² | - |
| 1777859586 | 22.78° C | 51% | 1008.7 hPa | 0 mm | - | 94 W/m² | - |
| 1777859282 | 23.33° C | 50% | 1008.7 hPa | 0 mm | - | 110 W/m² | - |
| 1777858978 | 23.33° C | 49% | 1008.8 hPa | 0 mm | - | 120 W/m² | - |
| 1777858676 | 23.89° C | 50% | 1008.9 hPa | 0 mm | - | 129 W/m² | - |
| 1777858374 | 24.44° C | 45% | 1008.9 hPa | 0 mm | - | 140 W/m² | - |
| 1777858069 | 24.44° C | 46% | 1008.8 hPa | 0 mm | - | 150 W/m² | - |
| 1777857768 | 24.44° C | 46% | 1008.9 hPa | 0 mm | - | 161 W/m² | - |
| 1777857464 | 24.44° C | 46% | 1008.8 hPa | 0 mm | - | 175 W/m² | - |
| 1777857161 | 25° C | 44% | 1008.9 hPa | 0 mm | - | 187 W/m² | - |
| 1777856857 | 24.44° C | 45% | 1009 hPa | 0 mm | - | 199 W/m² | - |
| 1777856553 | 24.44° C | 45% | 1008.9 hPa | 0 mm | - | 212 W/m² | - |
| 1777856250 | 25° C | 45% | 1009 hPa | 0 mm | - | 224 W/m² | - |
| 1777855947 | 25° C | 44% | 1009.2 hPa | 0 mm | - | 237 W/m² | - |
| 1777855645 | 25° C | 43% | 1009.3 hPa | 0 mm | - | 250 W/m² | - |
* Rain latest hour (hover to see other rain measurements)
** Current wind speed in m/s (hover to see current wind gust speed)